Sign-in with your pilot id or email, or register

ICAO: HECA Name / Country: Cairo Airport / Egypt
Latitude: 30.1219 Longitude: 31.4056
Total Arrivals:
Strict Standards: Non-static method AirportData::getarrflights() should not be called statically, assuming $this from incompatible context in /var/www/customers/vh-7192/web/home/phpvms/core/templates/airport_info.tpl on line 18
2
Total Departures:
Strict Standards: Non-static method AirportData::getdeptflights() should not be called statically, assuming $this from incompatible context in /var/www/customers/vh-7192/web/home/phpvms/core/templates/airport_info.tpl on line 21
0
Latest Arrival: MTA5PM (DTTA-HECA) Tibor Berces Latest Departure: (-)
Metar: HECA 271030Z 05016KT CAVOK 32/15 Q1013 NOSIG
More info

Charts for HECA


NOTAM


Warning: file_get_contents(http://api.vateud.net/notams/HECA.json): failed to open stream: Redirection limit reached, aborting in /var/www/customers/vh-7192/web/home/phpvms/core/common/NOTAMSData.class.php on line 18

Warning: Invalid argument supplied for foreach() in /var/www/customers/vh-7192/web/home/phpvms/core/common/NOTAMSData.class.php on line 22

Cairo Airport